Time;durP1;ratioP1;P1;durP2;ratioP2;P2;SDS_P1;SDS_P2;PMS_P1;PMS_P2;Temp;Humidity;BMP_temperature;BMP_pressure;BME280_temperature;BME280_humidity;BME280_pressure;Samples;Min_cycle;Max_cycle;Signal;HPM_P1;HPM_P2
2022/07/07 00:01:10;;;;;;;4.90;1.65;;;22.80;62.30;;;;;;5007791;28;20018;-64
2022/07/07 00:03:36;;;;;;;3.45;1.38;;;22.80;62.30;;;;;;5008319;28;20045;-64
2022/07/07 00:06:02;;;;;;;3.38;1.33;;;22.70;62.30;;;;;;5008561;28;20034;-65
2022/07/07 00:08:27;;;;;;;4.97;1.48;;;22.70;62.30;;;;;;5007932;28;20053;-64
2022/07/07 00:10:53;;;;;;;5.30;1.65;;;22.70;62.30;;;;;;5009564;28;20057;-64
2022/07/07 00:13:19;;;;;;;4.80;1.45;;;22.70;62.40;;;;;;5016812;28;20505;-64
2022/07/07 00:15:45;;;;;;;4.22;1.35;;;22.70;62.30;;;;;;5007610;28;20569;-64
2022/07/07 00:18:14;;;;;;;4.13;1.50;;;22.70;62.40;;;;;;4964393;28;1224244;-64
2022/07/07 00:20:40;;;;;;;4.60;1.60;;;22.60;62.30;;;;;;5007873;28;20026;-65
2022/07/07 00:23:05;;;;;;;4.00;1.45;;;22.60;62.30;;;;;;5009301;28;20449;-64
2022/07/07 00:25:31;;;;;;;2.03;1.10;;;22.70;62.40;;;;;;5008587;28;20487;-64
2022/07/07 00:27:57;;;;;;;5.20;1.25;;;22.70;62.40;;;;;;5009068;28;20033;-64
2022/07/07 00:30:22;;;;;;;4.15;1.40;;;22.60;62.30;;;;;;5008132;28;20034;-64
2022/07/07 00:32:48;;;;;;;4.07;1.30;;;22.70;62.40;;;;;;5007505;28;20026;-64
2022/07/07 00:35:14;;;;;;;4.70;1.50;;;22.60;62.30;;;;;;5011262;28;20038;-64
2022/07/07 00:37:39;;;;;;;4.35;1.38;;;22.60;62.40;;;;;;5008884;28;20457;-64
2022/07/07 00:40:05;;;;;;;4.38;1.20;;;22.60;62.40;;;;;;5010109;28;20650;-64
2022/07/07 00:42:31;;;;;;;3.20;1.30;;;22.60;62.40;;;;;;5008321;28;20101;-64
2022/07/07 00:44:57;;;;;;;3.70;1.42;;;22.60;62.40;;;;;;5007759;28;20114;-64
2022/07/07 00:47:22;;;;;;;3.78;1.38;;;22.60;62.40;;;;;;5008106;28;20080;-64
2022/07/07 00:49:48;;;;;;;3.17;1.40;;;22.60;62.40;;;;;;5008095;28;20084;-64
2022/07/07 00:52:14;;;;;;;2.88;1.20;;;22.60;62.40;;;;;;5022665;28;20080;-64
2022/07/07 00:54:39;;;;;;;1.92;1.20;;;22.60;62.40;;;;;;5007979;28;20029;-64
2022/07/07 00:57:05;;;;;;;4.10;1.30;;;22.60;62.50;;;;;;5007307;28;20030;-64
2022/07/07 00:59:33;;;;;;;3.45;1.40;;;22.50;62.40;;;;;;5008502;28;20061;-64
2022/07/07 01:01:58;;;;;;;3.15;1.27;;;22.50;62.40;;;;;;5004300;28;20041;-64
2022/07/07 01:04:24;;;;;;;1.98;1.20;;;22.60;62.50;;;;;;5007322;28;20030;-65
2022/07/07 01:06:50;;;;;;;3.35;1.45;;;22.60;62.50;;;;;;5005429;28;20057;-64
2022/07/07 01:09:15;;;;;;;3.30;1.30;;;22.60;62.50;;;;;;5007217;28;20026;-64
2022/07/07 01:11:55;;;;;;;5.43;1.70;;;22.50;62.40;;;;;;5006599;28;20041;-64
2022/07/07 01:14:21;;;;;;;2.42;1.25;;;22.60;62.50;;;;;;5006092;28;20026;-64
2022/07/07 01:16:47;;;;;;;4.13;1.33;;;22.50;62.40;;;;;;5005340;28;20107;-64
2022/07/07 01:19:13;;;;;;;3.15;1.40;;;22.50;62.60;;;;;;5006464;28;20691;-64
2022/07/07 01:22:03;;;;;;;6.18;1.50;;;22.50;62.50;;;;;;5009217;28;20025;-64
2022/07/07 01:24:29;;;;;;;3.63;1.15;;;22.50;62.60;;;;;;5005905;28;20053;-64
2022/07/07 01:27:15;;;;;;;3.72;1.20;;;22.50;62.60;;;;;;5007601;28;20483;-64
2022/07/07 01:29:43;;;;;;;3.40;1.40;;;22.50;62.60;;;;;;5006815;28;20033;-64
2022/07/07 01:32:09;;;;;;;3.92;1.30;;;22.50;62.60;;;;;;5007532;28;20022;-64
2022/07/07 01:34:35;;;;;;;2.70;1.15;;;22.40;62.60;;;;;;5007017;28;20556;-64
2022/07/07 01:37:01;;;;;;;3.47;1.20;;;22.50;62.70;;;;;;5006387;28;20084;-64
2022/07/07 01:39:27;;;;;;;3.05;1.38;;;22.50;62.60;;;;;;5007428;28;20045;-65
2022/07/07 01:41:52;;;;;;;4.20;1.30;;;22.40;62.60;;;;;;5007376;28;20481;-64
2022/07/07 01:44:18;;;;;;;3.25;1.30;;;22.40;62.60;;;;;;5008388;28;20028;-64
2022/07/07 01:46:43;;;;;;;2.28;1.25;;;22.40;62.60;;;;;;5008533;28;20030;-64
2022/07/07 01:49:10;;;;;;;3.40;1.50;;;22.40;62.60;;;;;;5007289;28;20038;-64
2022/07/07 01:51:35;;;;;;;3.03;1.30;;;22.40;62.60;;;;;;5005766;28;20033;-64
2022/07/07 01:54:01;;;;;;;3.85;1.30;;;22.40;62.70;;;;;;5008566;28;20545;-64
2022/07/07 01:56:26;;;;;;;2.70;1.17;;;22.40;62.70;;;;;;5007708;28;20406;-64
2022/07/07 01:58:52;;;;;;;1.52;1.10;;;22.40;62.80;;;;;;5006034;28;20499;-64
2022/07/07 02:01:18;;;;;;;4.05;1.23;;;22.40;62.70;;;;;;5006134;28;20437;-64
2022/07/07 02:03:44;;;;;;;3.45;1.33;;;22.40;62.80;;;;;;5008685;28;20490;-64
2022/07/07 02:06:09;;;;;;;2.83;1.10;;;22.30;62.70;;;;;;5008156;28;20038;-64
2022/07/07 02:08:35;;;;;;;2.30;1.20;;;22.30;62.70;;;;;;5006067;28;20049;-64
2022/07/07 02:11:13;;;;;;;3.85;1.25;;;22.30;62.70;;;;;;5009712;28;20033;-64
2022/07/07 02:13:46;;;;;;;3.40;1.30;;;22.40;62.80;;;;;;5007050;28;20483;-63
2022/07/07 02:16:12;;;;;;;2.08;1.27;;;22.30;62.70;;;;;;5006595;28;20101;-64
2022/07/07 02:18:38;;;;;;;2.78;1.02;;;22.40;62.80;;;;;;5004923;28;20054;-64
2022/07/07 02:21:05;;;;;;;4.03;1.33;;;22.30;62.70;;;;;;5006891;28;20449;-64
2022/07/07 02:23:31;;;;;;;3.05;1.52;;;22.30;62.70;;;;;;5005178;28;20017;-64
2022/07/07 02:25:56;;;;;;;2.88;1.35;;;22.30;62.70;;;;;;5021812;28;20048;-64
2022/07/07 02:28:23;;;;;;;3.97;1.20;;;22.30;62.70;;;;;;5007242;28;20506;-64
2022/07/07 02:30:52;;;;;;;2.10;1.10;;;22.30;62.70;;;;;;5007180;28;20445;-64
2022/07/07 02:33:18;;;;;;;4.75;1.30;;;22.30;62.70;;;;;;5004919;28;20026;-64
2022/07/07 02:35:44;;;;;;;3.17;1.30;;;22.30;62.70;;;;;;5007433;28;20030;-64
2022/07/07 02:38:09;;;;;;;3.58;1.30;;;22.30;62.70;;;;;;5007057;28;20049;-65
2022/07/07 02:40:35;;;;;;;2.10;1.10;;;22.20;62.60;;;;;;5007024;28;20022;-64
2022/07/07 02:43:00;;;;;;;2.30;1.05;;;22.30;62.70;;;;;;5006910;28;20034;-65
2022/07/07 02:45:26;;;;;;;3.22;1.20;;;22.30;62.70;;;;;;5004665;28;20041;-64
2022/07/07 02:47:52;;;;;;;2.70;1.50;;;22.20;62.60;;;;;;5007135;28;20025;-64
2022/07/07 02:50:18;;;;;;;1.95;1.10;;;22.30;62.70;;;;;;5005917;28;20608;-64
2022/07/07 02:52:44;;;;;;;3.70;1.30;;;22.30;62.70;;;;;;5005730;28;20084;-64
2022/07/07 02:55:09;;;;;;;2.42;1.35;;;22.30;62.70;;;;;;5005024;28;20032;-65
2022/07/07 02:57:36;;;;;;;2.90;1.20;;;22.30;62.70;;;;;;5005304;28;20066;-64
2022/07/07 03:00:03;;;;;;;2.47;1.17;;;22.30;63.70;;;;;;5006864;28;20126;-64
2022/07/07 03:02:29;;;;;;;1.70;1.00;;;22.20;62.60;;;;;;5006205;28;20193;-64
2022/07/07 03:04:54;;;;;;;3.72;1.45;;;22.20;62.70;;;;;;5004935;28;20573;-64
2022/07/07 03:07:20;;;;;;;2.90;1.20;;;22.20;62.60;;;;;;5005705;28;20736;-64
2022/07/07 03:09:46;;;;;;;3.13;1.20;;;22.20;62.60;;;;;;5005508;28;20057;-64
2022/07/07 03:12:12;;;;;;;3.08;1.15;;;22.20;62.60;;;;;;5003117;28;20032;-64
2022/07/07 03:14:37;;;;;;;3.45;1.15;;;22.20;62.60;;;;;;5006255;28;20058;-64
2022/07/07 03:17:03;;;;;;;2.50;1.13;;;22.20;62.60;;;;;;5004572;28;20111;-64
2022/07/07 03:19:29;;;;;;;2.35;1.17;;;22.20;62.60;;;;;;5005029;28;20048;-64
2022/07/07 03:21:55;;;;;;;3.35;1.30;;;22.20;62.70;;;;;;5006570;28;20026;-64
2022/07/07 03:24:20;;;;;;;2.22;1.23;;;22.20;62.60;;;;;;5005924;28;20034;-64
2022/07/07 03:26:46;;;;;;;2.17;1.10;;;22.10;62.60;;;;;;5006162;28;20032;-64
2022/07/07 03:29:12;;;;;;;1.90;1.02;;;22.20;62.60;;;;;;5006992;28;20064;-64
2022/07/07 03:31:37;;;;;;;2.78;1.30;;;22.20;62.60;;;;;;5006601;28;20080;-64
2022/07/07 03:34:03;;;;;;;2.47;1.20;;;22.20;62.60;;;;;;5004481;28;20042;-64
2022/07/07 03:36:29;;;;;;;4.53;1.63;;;22.20;62.80;;;;;;5004325;28;20034;-64
2022/07/07 03:38:54;;;;;;;3.45;1.30;;;22.20;63.10;;;;;;5004776;28;20101;-65
2022/07/07 03:41:20;;;;;;;3.13;1.08;;;22.20;62.70;;;;;;5005117;28;20049;-64
2022/07/07 03:43:45;;;;;;;2.85;1.20;;;22.20;62.80;;;;;;5004560;28;20037;-64
2022/07/07 03:46:11;;;;;;;4.38;1.58;;;22.10;62.70;;;;;;5005429;28;20029;-64
2022/07/07 03:48:37;;;;;;;5.35;1.50;;;22.10;63.70;;;;;;5017189;28;20034;-64
2022/07/07 03:51:02;;;;;;;4.35;1.60;;;22.10;62.70;;;;;;5003663;28;20022;-64
2022/07/07 03:53:28;;;;;;;6.75;1.90;;;22.10;62.70;;;;;;5004649;28;20117;-64
2022/07/07 03:55:54;;;;;;;4.80;1.60;;;22.10;62.80;;;;;;5006522;28;20026;-64
2022/07/07 03:58:19;;;;;;;6.45;1.92;;;22.10;62.80;;;;;;5006477;28;20065;-65
2022/07/07 04:00:45;;;;;;;6.28;2.10;;;22.10;62.80;;;;;;5005459;28;20022;-64
2022/07/07 04:03:10;;;;;;;8.30;2.10;;;22.10;62.80;;;;;;5006967;28;20029;-65
2022/07/07 04:05:36;;;;;;;8.57;2.40;;;22.10;62.80;;;;;;5005500;28;20026;-65
2022/07/07 04:08:02;;;;;;;7.68;2.55;;;22.10;62.90;;;;;;5005831;28;20541;-66
2022/07/07 04:10:27;;;;;;;5.68;1.95;;;22.10;63.00;;;;;;5005160;28;20030;-65
2022/07/07 04:12:56;;;;;;;7.00;2.30;;;22.10;62.90;;;;;;5005276;28;20505;-66
2022/07/07 04:15:21;;;;;;;7.03;2.50;;;22.10;62.90;;;;;;5004608;28;20497;-65
2022/07/07 04:17:47;;;;;;;8.40;2.70;;;22.10;62.90;;;;;;5004294;28;20041;-65
2022/07/07 04:20:13;;;;;;;6.78;2.50;;;22.10;62.90;;;;;;5003519;28;20030;-65
2022/07/07 04:22:38;;;;;;;9.68;2.90;;;22.10;62.90;;;;;;5005538;28;20041;-66
2022/07/07 04:25:04;;;;;;;10.52;2.53;;;22.10;62.90;;;;;;5003952;28;20026;-65
2022/07/07 04:27:30;;;;;;;8.98;2.90;;;22.10;63.00;;;;;;5002283;28;20026;-65
2022/07/07 04:29:56;;;;;;;6.70;2.55;;;22.00;62.90;;;;;;5006713;28;20022;-65
2022/07/07 04:32:21;;;;;;;8.57;2.85;;;22.00;62.90;;;;;;5001791;28;20021;-63
2022/07/07 04:34:47;;;;;;;11.07;3.10;;;22.10;63.00;;;;;;5002624;28;20109;-63
2022/07/07 04:37:13;;;;;;;7.82;2.75;;;22.00;63.00;;;;;;5004079;28;20679;-63
2022/07/07 04:39:39;;;;;;;8.57;3.10;;;22.00;63.00;;;;;;5002676;28;20041;-62
2022/07/07 04:42:06;;;;;;;8.93;2.80;;;22.00;63.00;;;;;;5019808;28;20042;-65
2022/07/07 04:44:32;;;;;;;9.52;2.72;;;22.00;63.00;;;;;;5008597;28;20440;-64
2022/07/07 04:47:00;;;;;;;10.07;3.17;;;22.00;63.10;;;;;;5006364;28;20026;-65
2022/07/07 04:49:26;;;;;;;10.00;3.15;;;22.00;63.10;;;;;;5007248;28;20037;-65
2022/07/07 04:51:52;;;;;;;9.13;2.67;;;22.00;63.10;;;;;;5007219;28;20017;-65
2022/07/07 04:54:17;;;;;;;8.90;3.00;;;22.00;63.10;;;;;;5009359;28;20105;-65
2022/07/07 04:56:43;;;;;;;8.77;3.00;;;22.00;63.10;;;;;;5005997;28;20251;-65
2022/07/07 04:59:09;;;;;;;8.07;2.80;;;22.00;63.10;;;;;;5005498;28;20133;-65
2022/07/07 05:01:34;;;;;;;10.25;3.03;;;22.00;63.10;;;;;;5007842;28;20029;-65
2022/07/07 05:04:00;;;;;;;9.65;3.00;;;22.00;63.20;;;;;;5004609;28;20402;-65
2022/07/07 05:06:25;;;;;;;8.43;2.95;;;22.00;63.20;;;;;;5005959;28;20498;-65
2022/07/07 05:08:51;;;;;;;9.93;3.22;;;22.00;63.20;;;;;;5005392;28;20025;-65
2022/07/07 05:11:17;;;;;;;12.50;3.65;;;22.00;63.20;;;;;;5006875;28;20033;-65
2022/07/07 05:13:42;;;;;;;9.18;2.90;;;22.00;63.20;;;;;;5008097;28;20037;-64
2022/07/07 05:16:08;;;;;;;11.05;3.15;;;22.00;63.20;;;;;;5007446;28;20116;-66
2022/07/07 05:18:33;;;;;;;10.57;3.13;;;22.00;63.60;;;;;;5004875;28;20134;-66
2022/07/07 05:20:59;;;;;;;13.75;3.03;;;22.00;63.70;;;;;;5007546;28;20034;-66
2022/07/07 05:23:25;;;;;;;11.80;3.38;;;22.00;64.10;;;;;;5005462;28;20028;-66
2022/07/07 05:25:52;;;;;;;13.35;3.10;;;22.00;64.30;;;;;;5004783;28;20025;-66
2022/07/07 05:28:17;;;;;;;11.18;2.72;;;22.00;64.60;;;;;;5008579;28;20018;-66
2022/07/07 05:30:43;;;;;;;11.02;2.80;;;22.00;64.60;;;;;;5006499;28;20446;-66
2022/07/07 05:33:09;;;;;;;10.90;2.95;;;22.00;64.30;;;;;;5005811;28;20400;-65
2022/07/07 05:35:35;;;;;;;11.18;2.95;;;22.00;64.20;;;;;;5009042;28;20669;-66
2022/07/07 05:38:01;;;;;;;12.45;3.28;;;22.00;64.10;;;;;;5006208;28;20030;-66
2022/07/07 05:40:27;;;;;;;11.60;2.80;;;22.00;64.10;;;;;;5008123;28;20026;-66
2022/07/07 05:42:53;;;;;;;11.48;2.97;;;22.00;64.10;;;;;;5006118;28;20026;-66
2022/07/07 05:45:19;;;;;;;9.77;2.80;;;22.00;64.10;;;;;;5007696;28;20461;-66
2022/07/07 05:47:44;;;;;;;13.80;3.30;;;22.00;64.10;;;;;;5006794;28;20113;-66
2022/07/07 05:50:10;;;;;;;12.18;3.20;;;22.00;64.10;;;;;;5021898;28;20092;-66
2022/07/07 05:52:36;;;;;;;10.23;2.90;;;22.00;64.10;;;;;;5006502;28;20041;-66
2022/07/07 05:55:02;;;;;;;11.27;3.03;;;22.00;64.20;;;;;;5007821;28;20056;-65
2022/07/07 05:57:27;;;;;;;10.98;2.80;;;22.00;64.20;;;;;;5006455;28;20033;-66
2022/07/07 05:59:53;;;;;;;9.93;2.90;;;22.00;65.30;;;;;;5007764;28;20568;-66
2022/07/07 06:02:19;;;;;;;14.27;3.33;;;22.00;64.30;;;;;;5006867;28;20029;-66
2022/07/07 06:04:44;;;;;;;12.38;3.47;;;22.00;64.30;;;;;;5007674;28;20057;-66
2022/07/07 06:07:10;;;;;;;12.82;3.08;;;22.00;64.30;;;;;;5006335;28;20092;-66
2022/07/07 06:09:35;;;;;;;11.75;3.05;;;22.00;64.30;;;;;;5005514;28;20402;-66
2022/07/07 06:12:01;;;;;;;10.02;2.83;;;22.00;64.30;;;;;;5006597;28;20505;-66
2022/07/07 06:14:28;;;;;;;8.07;2.53;;;22.00;64.30;;;;;;5007105;28;20499;-66
2022/07/07 06:16:54;;;;;;;8.77;2.95;;;22.00;64.30;;;;;;5003464;28;20077;-66
2022/07/07 06:19:19;;;;;;;9.52;2.83;;;22.00;64.30;;;;;;5006281;28;20068;-67
2022/07/07 06:21:45;;;;;;;10.88;3.05;;;22.00;64.30;;;;;;5005458;28;20096;-65
2022/07/07 06:24:11;;;;;;;8.80;2.70;;;22.00;64.30;;;;;;5003702;28;20026;-66
2022/07/07 06:26:37;;;;;;;9.48;3.10;;;22.00;64.30;;;;;;5021012;28;20037;-66
2022/07/07 06:29:03;;;;;;;9.98;2.75;;;22.00;64.30;;;;;;5006691;28;20026;-65
2022/07/07 06:31:29;;;;;;;11.27;2.63;;;22.00;64.30;;;;;;5007266;28;20110;-66
2022/07/07 06:33:55;;;;;;;9.05;2.60;;;22.00;64.20;;;;;;5006118;28;20022;-65
2022/07/07 06:36:20;;;;;;;9.43;2.80;;;22.00;64.30;;;;;;5003090;28;20505;-66
2022/07/07 06:38:46;;;;;;;12.73;3.05;;;22.00;64.90;;;;;;5005466;28;20517;-66
2022/07/07 06:41:11;;;;;;;12.02;2.90;;;22.00;64.30;;;;;;5007241;28;20025;-66
2022/07/07 06:43:37;;;;;;;10.07;2.80;;;22.00;64.40;;;;;;5000951;28;20022;-66
2022/07/07 06:46:03;;;;;;;8.43;2.85;;;22.00;64.40;;;;;;5006199;28;20441;-66
2022/07/07 06:48:28;;;;;;;10.90;2.83;;;22.00;64.40;;;;;;5007962;28;20038;-65
2022/07/07 06:50:54;;;;;;;8.43;2.83;;;22.00;64.40;;;;;;5005650;28;20120;-66
2022/07/07 06:53:20;;;;;;;10.18;2.70;;;22.00;64.20;;;;;;5006852;28;20045;-66
2022/07/07 06:55:46;;;;;;;9.80;3.00;;;22.10;64.20;;;;;;5002952;28;20068;-65
2022/07/07 06:58:12;;;;;;;9.45;2.50;;;22.00;64.30;;;;;;5005314;28;20049;-65
2022/07/07 07:00:39;;;;;;;9.93;2.90;;;22.10;64.40;;;;;;5007066;28;20363;-66
2022/07/07 07:03:05;;;;;;;10.70;3.03;;;22.00;64.30;;;;;;5005808;28;20517;-65
2022/07/07 07:05:30;;;;;;;8.85;2.65;;;22.00;64.20;;;;;;5005066;28;20021;-66
2022/07/07 07:07:56;;;;;;;7.85;2.58;;;22.00;64.30;;;;;;5006801;28;20038;-66
2022/07/07 07:10:22;;;;;;;10.15;2.85;;;22.00;64.40;;;;;;5005220;28;20633;-66
2022/07/07 07:12:48;;;;;;;10.05;2.70;;;22.00;64.70;;;;;;5006728;28;20041;-66
2022/07/07 07:15:13;;;;;;;10.20;2.63;;;22.00;64.30;;;;;;5003336;28;20049;-66
2022/07/07 07:17:39;;;;;;;9.60;2.60;;;22.00;64.40;;;;;;5007097;28;20498;-66
2022/07/07 07:20:05;;;;;;;8.98;2.50;;;22.00;64.40;;;;;;5003923;28;20038;-66
2022/07/07 07:22:38;;;;;;;9.60;2.65;;;22.00;64.40;;;;;;5006508;28;21935;-66
2022/07/07 07:25:04;;;;;;;9.55;2.63;;;22.00;64.40;;;;;;5005787;28;20045;-65
2022/07/07 07:27:30;;;;;;;8.52;2.90;;;22.00;64.40;;;;;;5020702;28;20018;-66
2022/07/07 07:29:56;;;;;;;8.80;2.83;;;22.00;64.30;;;;;;5005674;28;20033;-66
2022/07/07 07:32:21;;;;;;;9.85;2.90;;;22.00;64.30;;;;;;5006860;28;20040;-66
2022/07/07 07:34:47;;;;;;;7.97;2.83;;;22.00;64.40;;;;;;5006278;28;20715;-66
2022/07/07 07:37:12;;;;;;;8.80;2.65;;;22.00;64.30;;;;;;5006258;28;20026;-66
2022/07/07 07:39:38;;;;;;;9.90;2.42;;;22.00;64.30;;;;;;5005602;28;20030;-66
2022/07/07 07:42:04;;;;;;;7.93;2.63;;;22.00;64.40;;;;;;5007009;28;20031;-66
2022/07/07 07:47:14;;;;;;;8.35;2.65;;;22.00;64.30;;;;;;5005061;28;20041;-65
2022/07/07 07:49:39;;;;;;;6.78;2.60;;;21.90;64.40;;;;;;5007028;28;20422;-66
2022/07/07 07:52:05;;;;;;;7.40;2.60;;;21.90;64.30;;;;;;5004743;28;20454;-66
2022/07/07 07:54:31;;;;;;;7.45;2.33;;;22.00;64.40;;;;;;5005115;28;20018;-66
2022/07/07 07:56:57;;;;;;;7.85;2.53;;;21.90;64.30;;;;;;5004499;28;20033;-66
2022/07/07 07:59:22;;;;;;;7.38;2.42;;;21.90;64.30;;;;;;5006227;28;20033;-66
2022/07/07 08:01:48;;;;;;;7.25;2.35;;;22.00;64.40;;;;;;5005477;28;20018;-65
2022/07/07 08:04:14;;;;;;;8.48;2.45;;;21.90;64.40;;;;;;5005995;28;20069;-66
2022/07/07 08:06:39;;;;;;;7.60;2.42;;;21.90;64.30;;;;;;5004315;28;20034;-66
2022/07/07 08:09:05;;;;;;;7.10;2.58;;;21.90;64.30;;;;;;5004952;28;20037;-65
2022/07/07 08:11:30;;;;;;;7.40;2.40;;;21.90;64.40;;;;;;5005093;28;20525;-66
2022/07/07 08:13:56;;;;;;;7.80;2.50;;;21.90;64.30;;;;;;5005998;28;20537;-66
2022/07/07 08:16:22;;;;;;;7.72;2.25;;;22.00;64.40;;;;;;5006063;28;20022;-66
2022/07/07 08:18:48;;;;;;;7.40;2.38;;;21.90;64.40;;;;;;5010611;28;20418;-66
2022/07/07 08:21:13;;;;;;;7.25;2.58;;;21.90;64.30;;;;;;5008885;28;20044;-66
2022/07/07 08:23:39;;;;;;;7.35;2.35;;;21.90;64.30;;;;;;5008844;28;20030;-66
2022/07/07 08:26:05;;;;;;;6.60;2.28;;;21.90;64.40;;;;;;5009546;28;20631;-66
2022/07/07 08:28:32;;;;;;;7.13;2.33;;;22.00;64.40;;;;;;5008845;28;20053;-65
2022/07/07 08:30:57;;;;;;;6.72;2.30;;;21.90;64.40;;;;;;5008458;28;20022;-66
2022/07/07 08:33:23;;;;;;;5.85;2.10;;;21.90;64.40;;;;;;5009211;28;20121;-66
2022/07/07 08:35:49;;;;;;;7.28;2.30;;;21.90;64.30;;;;;;5006885;28;20092;-66
2022/07/07 08:38:14;;;;;;;6.32;2.25;;;22.00;64.40;;;;;;5008254;28;20042;-66
2022/07/07 08:40:40;;;;;;;6.18;2.42;;;22.00;64.40;;;;;;5007947;28;20029;-66
2022/07/07 08:43:06;;;;;;;6.50;2.30;;;21.90;64.40;;;;;;5007880;28;20037;-66
2022/07/07 08:45:32;;;;;;;6.80;2.20;;;21.90;64.40;;;;;;5023960;28;20084;-66
2022/07/07 08:47:57;;;;;;;6.00;2.00;;;22.00;64.40;;;;;;5007627;28;20029;-66
2022/07/07 08:50:23;;;;;;;9.25;2.60;;;21.90;64.30;;;;;;5009397;28;20022;-66
2022/07/07 08:52:50;;;;;;;6.10;2.08;;;21.90;64.30;;;;;;5007596;28;20033;-66
2022/07/07 08:55:16;;;;;;;7.03;2.13;;;22.00;64.40;;;;;;5023952;28;20042;-65
2022/07/07 08:57:42;;;;;;;7.63;2.35;;;21.90;64.40;;;;;;5008211;28;20497;-66
2022/07/07 09:00:09;;;;;;;8.18;2.40;;;22.00;64.40;;;;;;5007371;28;20021;-66
2022/07/07 09:02:34;;;;;;;7.00;2.20;;;21.90;64.40;;;;;;5006024;28;20032;-66
2022/07/07 09:05:00;;;;;;;8.10;2.47;;;21.90;64.40;;;;;;5007059;28;20426;-66
2022/07/07 09:07:43;;;;;;;6.85;2.05;;;21.90;64.40;;;;;;5009555;28;20517;-66
2022/07/07 09:10:09;;;;;;;7.25;2.08;;;22.00;64.40;;;;;;5019628;28;20507;-66
2022/07/07 09:12:34;;;;;;;6.63;2.30;;;21.90;64.40;;;;;;5008662;28;20036;-66
2022/07/07 09:15:02;;;;;;;7.10;2.20;;;21.90;64.40;;;;;;5007127;28;20025;-66
2022/07/07 09:17:29;;;;;;;6.53;2.25;;;22.00;65.10;;;;;;5024055;28;20038;-66
2022/07/07 09:20:10;;;;;;;6.00;2.40;;;21.90;64.40;;;;;;5007262;28;20479;-66
2022/07/07 09:22:44;;;;;;;8.60;2.22;;;22.00;64.40;;;;;;5004843;28;20033;-66
2022/07/07 09:25:10;;;;;;;7.32;2.22;;;21.90;64.40;;;;;;5008552;28;20041;-66
2022/07/07 09:27:49;;;;;;;5.75;2.08;;;21.90;64.40;;;;;;5008358;28;20026;-66
2022/07/07 09:30:22;;;;;;;7.40;2.28;;;21.90;64.40;;;;;;5006035;28;20029;-66
2022/07/07 09:32:48;;;;;;;6.75;2.28;;;21.90;64.40;;;;;;5005660;28;20117;-66
2022/07/07 09:38:14;;;;;;;6.82;2.22;;;21.90;64.40;;;;;;5008696;28;20045;-66
2022/07/07 09:40:49;;;;;;;6.38;2.38;;;21.90;64.40;;;;;;5007755;28;20032;-66
2022/07/07 09:43:15;;;;;;;6.60;2.10;;;22.00;64.40;;;;;;5006904;28;20105;-66
2022/07/07 09:45:41;;;;;;;7.00;2.15;;;21.90;64.40;;;;;;5005719;28;20184;-66
2022/07/07 09:48:10;;;;;;;8.27;2.25;;;21.90;64.40;;;;;;5004003;28;20109;-66
2022/07/07 09:50:36;;;;;;;7.15;2.40;;;22.00;64.40;;;;;;5006830;28;20550;-66
2022/07/07 09:53:07;;;;;;;5.18;1.80;;;21.90;64.40;;;;;;5005980;28;20109;-65
2022/07/07 09:55:32;;;;;;;6.78;2.00;;;21.90;64.40;;;;;;5008067;28;20025;-66
2022/07/07 09:57:58;;;;;;;6.20;2.10;;;21.90;64.50;;;;;;5005144;28;20064;-65
2022/07/07 10:00:24;;;;;;;7.15;2.15;;;21.90;64.40;;;;;;5006074;28;20109;-65
2022/07/07 10:02:50;;;;;;;5.20;1.90;;;21.90;64.40;;;;;;5006444;28;20441;-66
2022/07/07 10:05:18;;;;;;;5.70;1.80;;;21.90;64.40;;;;;;4987902;28;20506;-66
2022/07/07 10:07:45;;;;;;;4.30;1.95;;;21.90;64.50;;;;;;5004940;28;20033;-66
2022/07/07 10:10:12;;;;;;;6.68;2.20;;;21.90;64.40;;;;;;5006347;28;20564;-66
2022/07/07 10:12:50;;;;;;;5.50;2.10;;;21.90;64.40;;;;;;4988761;28;20102;-66
2022/07/07 10:15:16;;;;;;;8.27;2.00;;;21.90;64.40;;;;;;5004313;28;20038;-66
2022/07/07 10:17:43;;;;;;;7.00;2.38;;;21.90;64.40;;;;;;5005873;28;20410;-66
2022/07/07 10:20:09;;;;;;;8.23;2.25;;;21.90;64.50;;;;;;5007530;28;20030;-66
2022/07/07 10:22:35;;;;;;;6.53;1.98;;;21.90;64.40;;;;;;5004268;28;20038;-66
2022/07/07 10:25:02;;;;;;;6.60;2.00;;;21.90;64.60;;;;;;5021386;28;20072;-66
2022/07/07 10:27:28;;;;;;;6.78;2.10;;;21.90;64.40;;;;;;5004714;28;20029;-66
2022/07/07 10:29:55;;;;;;;5.60;1.73;;;22.00;64.50;;;;;;5005909;28;20529;-66
2022/07/07 10:32:40;;;;;;;6.32;2.10;;;21.90;64.40;;;;;;5005942;28;20018;-66
2022/07/07 10:35:15;;;;;;;6.22;2.00;;;21.90;64.40;;;;;;5006597;28;20034;-66
2022/07/07 10:37:45;;;;;;;6.43;1.92;;;22.00;64.40;;;;;;5006927;28;20110;-66
2022/07/07 10:40:21;;;;;;;7.38;2.20;;;22.00;64.30;;;;;;5006614;28;20603;-66
2022/07/07 10:42:57;;;;;;;6.65;1.90;;;22.00;64.30;;;;;;5004872;28;20398;-66
2022/07/07 10:45:23;;;;;;;4.75;2.00;;;22.00;64.30;;;;;;5021512;28;20037;-66
2022/07/07 10:47:48;;;;;;;6.47;2.30;;;22.00;64.30;;;;;;5001601;28;20023;-66
2022/07/07 10:50:25;;;;;;;5.13;2.00;;;22.00;64.30;;;;;;5006430;28;20387;-66
2022/07/07 10:52:50;;;;;;;4.18;1.67;;;22.00;64.20;;;;;;5004706;28;20527;-66
2022/07/07 10:55:16;;;;;;;5.72;2.03;;;22.00;64.20;;;;;;5004559;28;20101;-66
2022/07/07 10:57:43;;;;;;;6.10;2.00;;;22.00;64.20;;;;;;5005714;28;20364;-66
2022/07/07 11:00:19;;;;;;;7.05;2.25;;;22.00;64.10;;;;;;5006545;28;20022;-66
2022/07/07 11:03:03;;;;;;;6.60;2.20;;;22.00;64.10;;;;;;5004781;28;20089;-66
2022/07/07 11:05:30;;;;;;;6.22;2.03;;;22.00;64.00;;;;;;5005398;28;20084;-66
2022/07/07 11:07:59;;;;;;;5.03;1.95;;;22.00;64.00;;;;;;5006260;28;20029;-66
2022/07/07 11:10:36;;;;;;;4.55;1.77;;;22.10;64.00;;;;;;5003333;28;20494;-66
2022/07/07 11:13:29;;;;;;;5.47;2.20;;;22.10;63.90;;;;;;5004974;28;20037;-66
2022/07/07 11:16:16;;;;;;;6.28;2.03;;;22.10;63.80;;;;;;4965761;28;20069;-66
2022/07/07 11:18:46;;;;;;;6.32;1.90;;;22.10;63.80;;;;;;4965976;28;20058;-67
2022/07/07 11:21:11;;;;;;;4.78;2.00;;;22.10;63.80;;;;;;4947624;28;20106;-66
2022/07/07 11:23:55;;;;;;;6.40;2.00;;;22.10;63.80;;;;;;4965728;28;20035;-66
2022/07/07 11:26:25;;;;;;;5.10;1.88;;;22.10;64.70;;;;;;4962696;28;20062;-66
2022/07/07 11:28:52;;;;;;;5.18;2.08;;;22.10;63.60;;;;;;4963603;28;20493;-66
2022/07/07 11:31:17;;;;;;;5.72;1.95;;;22.10;63.70;;;;;;4963018;28;20121;-66
2022/07/07 11:33:51;;;;;;;5.53;2.05;;;22.10;63.60;;;;;;4963013;28;20048;-66
2022/07/07 11:36:28;;;;;;;4.93;1.80;;;22.10;63.60;;;;;;4948237;28;20031;-66
2022/07/07 11:38:57;;;;;;;5.68;2.00;;;22.20;63.60;;;;;;4962897;28;20041;-66
2022/07/07 11:41:40;;;;;;;5.82;2.10;;;22.20;63.70;;;;;;4963381;28;20038;-66
2022/07/07 11:44:05;;;;;;;4.80;1.90;;;22.20;63.50;;;;;;4964643;28;20039;-66
2022/07/07 11:46:31;;;;;;;5.88;2.00;;;22.20;63.60;;;;;;4964077;28;20049;-66
2022/07/07 11:48:56;;;;;;;4.78;1.80;;;22.20;63.50;;;;;;4948032;28;20035;-66
2022/07/07 11:51:29;;;;;;;5.97;2.00;;;22.20;63.60;;;;;;4963923;28;20539;-66
2022/07/07 11:53:57;;;;;;;5.93;2.10;;;22.20;63.50;;;;;;5004651;28;20113;-66
2022/07/07 11:56:30;;;;;;;5.15;1.90;;;22.20;63.60;;;;;;5008446;28;20031;-65
2022/07/07 11:58:56;;;;;;;4.47;1.70;;;22.20;63.50;;;;;;5007947;28;20096;-67
2022/07/07 12:01:22;;;;;;;5.45;1.90;;;22.20;63.40;;;;;;5008954;28;20112;-66
2022/07/07 12:03:48;;;;;;;6.40;1.95;;;22.20;63.40;;;;;;5008434;28;20109;-66
2022/07/07 12:06:13;;;;;;;6.22;2.00;;;22.20;63.40;;;;;;5007932;28;20072;-66
2022/07/07 12:08:39;;;;;;;5.93;2.00;;;22.30;63.40;;;;;;5008072;28;20018;-66
2022/07/07 12:11:05;;;;;;;5.35;1.77;;;22.30;63.30;;;;;;5009396;28;20029;-66
2022/07/07 12:13:30;;;;;;;5.45;1.80;;;22.30;63.30;;;;;;5009419;28;20082;-66
2022/07/07 12:15:57;;;;;;;5.28;2.00;;;22.30;63.30;;;;;;5008377;28;20402;-66
2022/07/07 12:18:37;;;;;;;4.82;1.90;;;22.20;63.20;;;;;;5007853;28;20060;-66
2022/07/07 12:21:07;;;;;;;5.95;2.00;;;22.30;63.20;;;;;;5007337;28;20613;-66
2022/07/07 12:23:43;;;;;;;6.70;2.40;;;22.30;63.30;;;;;;5008505;28;20056;-66
2022/07/07 12:26:17;;;;;;;4.00;1.80;;;22.30;63.30;;;;;;5005094;28;20429;-66
2022/07/07 12:28:43;;;;;;;4.78;1.80;;;22.30;63.20;;;;;;5007202;28;20088;-66
2022/07/07 12:31:09;;;;;;;3.78;1.70;;;22.30;63.20;;;;;;5008047;28;20030;-66
2022/07/07 12:33:36;;;;;;;4.47;1.70;;;22.40;63.20;;;;;;5008741;28;20100;-66
2022/07/07 12:36:11;;;;;;;4.30;1.80;;;22.40;63.10;;;;;;5010211;28;20500;-66
2022/07/07 12:38:55;;;;;;;4.30;1.85;;;22.30;63.10;;;;;;5009456;28;20037;-66
2022/07/07 12:41:28;;;;;;;5.10;1.55;;;22.40;63.10;;;;;;5005924;28;20032;-66
2022/07/07 12:43:55;;;;;;;5.38;1.77;;;22.40;63.10;;;;;;5007871;28;20033;-66
2022/07/07 12:46:21;;;;;;;4.97;1.88;;;22.40;63.10;;;;;;5008600;28;20080;-66
2022/07/07 12:48:53;;;;;;;4.03;1.88;;;22.40;63.00;;;;;;5009406;28;20029;-66
2022/07/07 12:51:24;;;;;;;4.70;1.58;;;22.40;62.90;;;;;;5007594;28;20030;-66